KBLM/BLM METAR and TAF weather

Enter ICAO airport designator
Station Type Date Time Source
KBLM METAR 2018/07/19 06:56 UTC NOAA

KBLM 190656Z AUTO 30005KT 10SM CLR 17/13 A3003 RMK AO2 SLP171 T01720128


Station Type Date Time Source
KBLM Decoded METAR 2018/07/19 06:56 UTC NOAA

Belmar-Farmingdale, NJ, United States (KBLM) 40-11N 074-08W
Jul 19, 2018 - 02:56 AM EDT / 2018.07.19 0656 UTC
Wind: from the WNW (300 degrees) at 6 MPH (5 KT):0
Visibility: 10 mile(s):0
Sky conditions: clear
Temperature: 63.0 F (17.2 C)
Dew Point: 55.0 F (12.8 C)
Relative Humidity: 75%
Pressure (altimeter): 30.03 in. Hg (1016 hPa)
ob: KBLM 190656Z AUTO 30005KT 10SM CLR 17/13 A3003 RMK AO2 SLP171 T01720128
cycle: 7

Station Type Date Time Source
KBLM TAF UTC NOAA

Error!


Example: see airport list